sensor_id;sensor_type;location;lat;lon;timestamp;temperature;humidity
51739;DHT22;37815;52.692;6.226;2023-03-04T00:02:54;8.40;98.60
51739;DHT22;37815;52.692;6.226;2023-03-04T00:07:55;8.40;98.70
51739;DHT22;37815;52.692;6.226;2023-03-04T00:12:55;8.40;98.70
51739;DHT22;37815;52.692;6.226;2023-03-04T00:17:56;9.90;99.00
51739;DHT22;37815;52.692;6.226;2023-03-04T00:22:57;8.40;98.70
51739;DHT22;37815;52.692;6.226;2023-03-04T00:27:57;8.40;98.70
51739;DHT22;37815;52.692;6.226;2023-03-04T00:32:58;8.50;98.70
51739;DHT22;37815;52.692;6.226;2023-03-04T00:37:59;8.40;98.70
51739;DHT22;37815;52.692;6.226;2023-03-04T00:42:59;8.40;98.70
51739;DHT22;37815;52.692;6.226;2023-03-04T00:48:00;8.50;98.70
51739;DHT22;37815;52.692;6.226;2023-03-04T00:53:00;8.40;98.70
51739;DHT22;37815;52.692;6.226;2023-03-04T00:58:01;8.40;98.70
51739;DHT22;37815;52.692;6.226;2023-03-04T01:03:02;7.90;98.60
51739;DHT22;37815;52.692;6.226;2023-03-04T01:08:03;8.40;98.70
51739;DHT22;37815;52.692;6.226;2023-03-04T01:13:08;8.40;98.70
51739;DHT22;37815;52.692;6.226;2023-03-04T01:18:09;9.00;98.80
51739;DHT22;37815;52.692;6.226;2023-03-04T01:23:09;9.80;99.00
51739;DHT22;37815;52.692;6.226;2023-03-04T01:28:10;9.60;99.00
51739;DHT22;37815;52.692;6.226;2023-03-04T01:33:11;8.40;98.70
51739;DHT22;37815;52.692;6.226;2023-03-04T01:38:11;8.40;98.70
51739;DHT22;37815;52.692;6.226;2023-03-04T01:43:19;8.40;98.70
51739;DHT22;37815;52.692;6.226;2023-03-04T01:48:25;8.40;98.70
51739;DHT22;37815;52.692;6.226;2023-03-04T01:53:27;9.50;99.00
51739;DHT22;37815;52.692;6.226;2023-03-04T01:58:30;8.60;98.80
51739;DHT22;37815;52.692;6.226;2023-03-04T02:03:31;8.40;98.70
51739;DHT22;37815;52.692;6.226;2023-03-04T02:08:32;8.40;98.70
51739;DHT22;37815;52.692;6.226;2023-03-04T02:13:33;8.40;98.80
51739;DHT22;37815;52.692;6.226;2023-03-04T02:18:35;8.40;98.80
51739;DHT22;37815;52.692;6.226;2023-03-04T02:23:45;8.40;98.80
51739;DHT22;37815;52.692;6.226;2023-03-04T02:28:50;8.40;98.80
51739;DHT22;37815;52.692;6.226;2023-03-04T02:33:53;8.40;98.80
51739;DHT22;37815;52.692;6.226;2023-03-04T02:38:56;8.40;98.80
51739;DHT22;37815;52.692;6.226;2023-03-04T02:43:59;8.40;98.80
51739;DHT22;37815;52.692;6.226;2023-03-04T02:49:00;9.20;99.00
51739;DHT22;37815;52.692;6.226;2023-03-04T02:54:01;9.80;99.10
51739;DHT22;37815;52.692;6.226;2023-03-04T02:59:02;8.40;98.80
51739;DHT22;37815;52.692;6.226;2023-03-04T03:04:03;8.40;98.80
51739;DHT22;37815;52.692;6.226;2023-03-04T03:09:04;9.50;99.10
51739;DHT22;37815;52.692;6.226;2023-03-04T03:14:05;8.40;98.80
51739;DHT22;37815;52.692;6.226;2023-03-04T03:19:09;8.40;98.90
51739;DHT22;37815;52.692;6.226;2023-03-04T03:24:09;8.50;98.90
51739;DHT22;37815;52.692;6.226;2023-03-04T03:29:10;8.30;98.80
51739;DHT22;37815;52.692;6.226;2023-03-04T03:34:10;8.30;98.80
51739;DHT22;37815;52.692;6.226;2023-03-04T03:39:11;8.30;98.80
51739;DHT22;37815;52.692;6.226;2023-03-04T03:44:12;8.30;98.80
51739;DHT22;37815;52.692;6.226;2023-03-04T03:49:12;8.30;98.80
51739;DHT22;37815;52.692;6.226;2023-03-04T03:54:13;8.30;98.80
51739;DHT22;37815;52.692;6.226;2023-03-04T03:59:13;8.50;98.90
51739;DHT22;37815;52.692;6.226;2023-03-04T04:04:14;8.30;98.80
51739;DHT22;37815;52.692;6.226;2023-03-04T04:09:15;8.30;98.80
51739;DHT22;37815;52.692;6.226;2023-03-04T04:14:15;8.30;98.80
51739;DHT22;37815;52.692;6.226;2023-03-04T04:19:18;8.30;98.80
51739;DHT22;37815;52.692;6.226;2023-03-04T04:24:18;8.30;98.80
51739;DHT22;37815;52.692;6.226;2023-03-04T04:29:19;8.30;98.80
51739;DHT22;37815;52.692;6.226;2023-03-04T04:34:20;8.30;98.80
51739;DHT22;37815;52.692;6.226;2023-03-04T04:39:21;9.60;99.20
51739;DHT22;37815;52.692;6.226;2023-03-04T04:44:21;8.30;98.80
51739;DHT22;37815;52.692;6.226;2023-03-04T04:49:22;7.80;98.70
51739;DHT22;37815;52.692;6.226;2023-03-04T04:54:23;8.30;98.80
51739;DHT22;37815;52.692;6.226;2023-03-04T04:59:24;8.30;98.80
51739;DHT22;37815;52.692;6.226;2023-03-04T05:04:25;8.30;98.80
51739;DHT22;37815;52.692;6.226;2023-03-04T05:09:25;8.30;98.80
51739;DHT22;37815;52.692;6.226;2023-03-04T05:14:27;8.30;98.80
51739;DHT22;37815;52.692;6.226;2023-03-04T05:19:28;8.30;98.80
51739;DHT22;37815;52.692;6.226;2023-03-04T05:24:29;8.90;99.00
51739;DHT22;37815;52.692;6.226;2023-03-04T05:29:29;8.30;98.80
51739;DHT22;37815;52.692;6.226;2023-03-04T05:34:30;9.20;99.10
51739;DHT22;37815;52.692;6.226;2023-03-04T05:39:30;8.30;98.80
51739;DHT22;37815;52.692;6.226;2023-03-04T05:44:31;8.30;98.90
51739;DHT22;37815;52.692;6.226;2023-03-04T05:49:32;9.70;99.20
51739;DHT22;37815;52.692;6.226;2023-03-04T05:54:32;8.30;98.90
51739;DHT22;37815;52.692;6.226;2023-03-04T05:59:33;8.30;98.90
51739;DHT22;37815;52.692;6.226;2023-03-04T06:04:33;8.90;99.00
51739;DHT22;37815;52.692;6.226;2023-03-04T06:09:34;8.20;98.90
51739;DHT22;37815;52.692;6.226;2023-03-04T06:14:35;9.70;99.20
51739;DHT22;37815;52.692;6.226;2023-03-04T06:19:35;8.30;98.90
51739;DHT22;37815;52.692;6.226;2023-03-04T06:24:37;8.30;99.20
51739;DHT22;37815;52.692;6.226;2023-03-04T06:29:38;8.20;98.90
51739;DHT22;37815;52.692;6.226;2023-03-04T06:34:39;8.20;98.90
51739;DHT22;37815;52.692;6.226;2023-03-04T06:39:39;8.20;98.90
51739;DHT22;37815;52.692;6.226;2023-03-04T06:44:40;8.20;98.90
51739;DHT22;37815;52.692;6.226;2023-03-04T06:49:40;8.20;98.90
51739;DHT22;37815;52.692;6.226;2023-03-04T06:54:42;8.20;98.90
51739;DHT22;37815;52.692;6.226;2023-03-04T06:59:42;8.20;98.90
51739;DHT22;37815;52.692;6.226;2023-03-04T07:04:43;8.20;98.90
51739;DHT22;37815;52.692;6.226;2023-03-04T07:09:43;8.90;99.00
51739;DHT22;37815;52.692;6.226;2023-03-04T07:14:44;8.30;98.90
51739;DHT22;37815;52.692;6.226;2023-03-04T07:19:48;8.30;98.90
51739;DHT22;37815;52.692;6.226;2023-03-04T07:24:48;8.30;98.90
51739;DHT22;37815;52.692;6.226;2023-03-04T07:29:49;8.30;98.90
51739;DHT22;37815;52.692;6.226;2023-03-04T07:34:50;8.30;98.90
51739;DHT22;37815;52.692;6.226;2023-03-04T07:39:50;9.10;99.10
51739;DHT22;37815;52.692;6.226;2023-03-04T07:44:51;9.00;99.00
51739;DHT22;37815;52.692;6.226;2023-03-04T07:49:58;8.30;99.10
51739;DHT22;37815;52.692;6.226;2023-03-04T07:54:59;9.30;99.10
51739;DHT22;37815;52.692;6.226;2023-03-04T07:59:59;8.90;99.00
51739;DHT22;37815;52.692;6.226;2023-03-04T08:05:00;8.40;98.80
51739;DHT22;37815;52.692;6.226;2023-03-04T08:10:01;8.30;98.80
51739;DHT22;37815;52.692;6.226;2023-03-04T08:15:02;8.40;98.80
51739;DHT22;37815;52.692;6.226;2023-03-04T08:20:03;8.40;98.80
51739;DHT22;37815;52.692;6.226;2023-03-04T08:25:04;8.40;98.80
51739;DHT22;37815;52.692;6.226;2023-03-04T08:30:05;8.40;98.80
51739;DHT22;37815;52.692;6.226;2023-03-04T08:35:06;8.40;98.80
51739;DHT22;37815;52.692;6.226;2023-03-04T08:40:07;8.40;98.80
51739;DHT22;37815;52.692;6.226;2023-03-04T08:45:09;8.40;98.80
51739;DHT22;37815;52.692;6.226;2023-03-04T08:50:10;8.40;98.80
51739;DHT22;37815;52.692;6.226;2023-03-04T08:55:11;8.40;98.80
51739;DHT22;37815;52.692;6.226;2023-03-04T09:00:13;8.40;98.80
51739;DHT22;37815;52.692;6.226;2023-03-04T09:05:13;8.40;98.80
51739;DHT22;37815;52.692;6.226;2023-03-04T09:10:14;8.40;98.80
51739;DHT22;37815;52.692;6.226;2023-03-04T09:15:15;8.50;98.80
51739;DHT22;37815;52.692;6.226;2023-03-04T09:20:15;8.50;98.90
51739;DHT22;37815;52.692;6.226;2023-03-04T09:25:16;8.90;98.90
51739;DHT22;37815;52.692;6.226;2023-03-04T09:30:17;9.70;99.10
51739;DHT22;37815;52.692;6.226;2023-03-04T09:35:18;8.60;98.80
51739;DHT22;37815;52.692;6.226;2023-03-04T09:40:22;8.50;99.10
51739;DHT22;37815;52.692;6.226;2023-03-04T09:45:28;8.60;98.90
51739;DHT22;37815;52.692;6.226;2023-03-04T09:50:33;8.60;99.00
51739;DHT22;37815;52.692;6.226;2023-03-04T09:55:39;9.60;99.20
51739;DHT22;37815;52.692;6.226;2023-03-04T10:00:41;8.60;98.90
51739;DHT22;37815;52.692;6.226;2023-03-04T10:10:55;8.70;99.00
51739;DHT22;37815;52.692;6.226;2023-03-04T10:16:00;8.70;99.00
51739;DHT22;37815;52.692;6.226;2023-03-04T10:21:09;9.30;99.10
51739;DHT22;37815;52.692;6.226;2023-03-04T10:26:16;8.80;98.90
51739;DHT22;37815;52.692;6.226;2023-03-04T10:31:35;8.80;98.90
51739;DHT22;37815;52.692;6.226;2023-03-04T10:37:04;8.80;99.00
51739;DHT22;37815;52.692;6.226;2023-03-04T10:47:16;8.80;99.00
51739;DHT22;37815;52.692;6.226;2023-03-04T10:57:44;8.80;99.10
51739;DHT22;37815;52.692;6.226;2023-03-04T11:02:48;10.00;98.50
51739;DHT22;37815;52.692;6.226;2023-03-04T11:07:51;8.30;98.70
51739;DHT22;37815;52.692;6.226;2023-03-04T11:13:11;8.30;98.80
51739;DHT22;37815;52.692;6.226;2023-03-04T11:18:13;8.40;99.00
51739;DHT22;37815;52.692;6.226;2023-03-04T11:34:08;8.80;98.90
51739;DHT22;37815;52.692;6.226;2023-03-04T11:44:30;8.90;98.80
51739;DHT22;37815;52.692;6.226;2023-03-04T12:11:33;9.00;99.00
51739;DHT22;37815;52.692;6.226;2023-03-04T12:21:47;10.50;99.30
51739;DHT22;37815;52.692;6.226;2023-03-04T12:26:56;9.10;99.00
51739;DHT22;37815;52.692;6.226;2023-03-04T12:32:32;10.30;99.20
51739;DHT22;37815;52.692;6.226;2023-03-04T12:43:48;9.20;98.10
51739;DHT22;37815;52.692;6.226;2023-03-04T12:58:50;8.50;96.00
51739;DHT22;37815;52.692;6.226;2023-03-04T13:09:13;8.30;96.90
51739;DHT22;37815;52.692;6.226;2023-03-04T13:24:47;8.20;97.60
51739;DHT22;37815;52.692;6.226;2023-03-04T13:29:50;8.40;97.70
51739;DHT22;37815;52.692;6.226;2023-03-04T13:34:51;8.60;97.70
51739;DHT22;37815;52.692;6.226;2023-03-04T13:45:36;8.90;97.80
51739;DHT22;37815;52.692;6.226;2023-03-04T13:50:43;10.30;98.20
51739;DHT22;37815;52.692;6.226;2023-03-04T13:56:01;10.00;98.10
51739;DHT22;37815;52.692;6.226;2023-03-04T14:01:04;10.00;98.10
51739;DHT22;37815;52.692;6.226;2023-03-04T14:06:26;10.40;98.10
51739;DHT22;37815;52.692;6.226;2023-03-04T14:11:34;9.40;97.80
51739;DHT22;37815;52.692;6.226;2023-03-04T14:16:44;9.40;97.80
51739;DHT22;37815;52.692;6.226;2023-03-04T14:21:47;9.40;97.80
51739;DHT22;37815;52.692;6.226;2023-03-04T14:26:48;9.40;97.90
51739;DHT22;37815;52.692;6.226;2023-03-04T14:31:49;10.20;98.10
51739;DHT22;37815;52.692;6.226;2023-03-04T14:36:52;10.00;98.10
51739;DHT22;37815;52.692;6.226;2023-03-04T14:41:55;9.50;98.10
51739;DHT22;37815;52.692;6.226;2023-03-04T14:47:05;9.50;97.40
51739;DHT22;37815;52.692;6.226;2023-03-04T14:57:32;8.90;96.10
51739;DHT22;37815;52.692;6.226;2023-03-04T15:02:40;8.90;97.30
51739;DHT22;37815;52.692;6.226;2023-03-04T15:07:41;9.00;97.50
51739;DHT22;37815;52.692;6.226;2023-03-04T15:12:56;10.50;98.00
51739;DHT22;37815;52.692;6.226;2023-03-04T15:18:02;9.10;97.70
51739;DHT22;37815;52.692;6.226;2023-03-04T15:23:04;9.20;97.80
51739;DHT22;37815;52.692;6.226;2023-03-04T15:28:16;9.20;97.80
51739;DHT22;37815;52.692;6.226;2023-03-04T15:33:32;9.30;98.10
51739;DHT22;37815;52.692;6.226;2023-03-04T15:38:40;9.30;98.00
51739;DHT22;37815;52.692;6.226;2023-03-04T15:43:42;9.30;98.00
51739;DHT22;37815;52.692;6.226;2023-03-04T15:48:48;10.60;98.40
51739;DHT22;37815;52.692;6.226;2023-03-04T15:53:51;10.50;98.40
51739;DHT22;37815;52.692;6.226;2023-03-04T15:59:09;9.50;98.30
51739;DHT22;37815;52.692;6.226;2023-03-04T16:04:13;10.20;98.50
51739;DHT22;37815;52.692;6.226;2023-03-04T16:09:23;9.30;98.40
51739;DHT22;37815;52.692;6.226;2023-03-04T16:14:24;9.20;98.40
51739;DHT22;37815;52.692;6.226;2023-03-04T16:19:26;9.20;98.50
51739;DHT22;37815;52.692;6.226;2023-03-04T16:24:28;9.20;98.50
51739;DHT22;37815;52.692;6.226;2023-03-04T16:29:32;9.20;98.80
51739;DHT22;37815;52.692;6.226;2023-03-04T16:34:32;9.20;98.60
51739;DHT22;37815;52.692;6.226;2023-03-04T16:39:33;9.20;98.60
51739;DHT22;37815;52.692;6.226;2023-03-04T16:44:34;9.80;99.00
51739;DHT22;37815;52.692;6.226;2023-03-04T16:49:34;9.20;98.70
51739;DHT22;37815;52.692;6.226;2023-03-04T16:54:35;9.20;98.70
51739;DHT22;37815;52.692;6.226;2023-03-04T16:59:36;9.80;98.90
51739;DHT22;37815;52.692;6.226;2023-03-04T17:04:36;10.00;99.00
51739;DHT22;37815;52.692;6.226;2023-03-04T17:09:38;9.70;99.00
51739;DHT22;37815;52.692;6.226;2023-03-04T17:14:39;9.10;98.90
51739;DHT22;37815;52.692;6.226;2023-03-04T17:19:39;9.70;99.00
51739;DHT22;37815;52.692;6.226;2023-03-04T17:24:40;8.90;98.30
51739;DHT22;37815;52.692;6.226;2023-03-04T17:29:42;8.60;98.60
51739;DHT22;37815;52.692;6.226;2023-03-04T17:34:43;9.20;98.90
51739;DHT22;37815;52.692;6.226;2023-03-04T17:39:43;8.70;98.70
51739;DHT22;37815;52.692;6.226;2023-03-04T17:44:44;8.70;98.70
51739;DHT22;37815;52.692;6.226;2023-03-04T17:49:45;8.80;98.70
51739;DHT22;37815;52.692;6.226;2023-03-04T17:54:46;8.80;98.70
51739;DHT22;37815;52.692;6.226;2023-03-04T17:59:46;8.80;98.60
51739;DHT22;37815;52.692;6.226;2023-03-04T18:04:47;8.80;98.60
51739;DHT22;37815;52.692;6.226;2023-03-04T18:09:49;9.30;98.70
51739;DHT22;37815;52.692;6.226;2023-03-04T18:14:50;8.70;98.10
51739;DHT22;37815;52.692;6.226;2023-03-04T18:19:50;9.20;98.50
51739;DHT22;37815;52.692;6.226;2023-03-04T18:24:51;8.60;98.40
51739;DHT22;37815;52.692;6.226;2023-03-04T18:29:52;8.70;98.40
51739;DHT22;37815;52.692;6.226;2023-03-04T18:34:52;8.70;98.40
51739;DHT22;37815;52.692;6.226;2023-03-04T18:39:53;8.70;98.40
51739;DHT22;37815;52.692;6.226;2023-03-04T18:44:54;10.30;98.80
51739;DHT22;37815;52.692;6.226;2023-03-04T18:49:54;8.80;98.40
51739;DHT22;37815;52.692;6.226;2023-03-04T18:54:55;8.70;98.40
51739;DHT22;37815;52.692;6.226;2023-03-04T18:59:58;10.10;98.80
51739;DHT22;37815;52.692;6.226;2023-03-04T19:05:11;8.70;98.40
51739;DHT22;37815;52.692;6.226;2023-03-04T19:10:12;8.80;98.50
51739;DHT22;37815;52.692;6.226;2023-03-04T19:15:13;8.70;98.40
51739;DHT22;37815;52.692;6.226;2023-03-04T19:20:15;8.70;98.50
51739;DHT22;37815;52.692;6.226;2023-03-04T19:25:15;8.90;98.50
51739;DHT22;37815;52.692;6.226;2023-03-04T19:30:16;8.70;98.50
51739;DHT22;37815;52.692;6.226;2023-03-04T19:35:17;8.70;98.50
51739;DHT22;37815;52.692;6.226;2023-03-04T19:40:18;8.90;98.60
51739;DHT22;37815;52.692;6.226;2023-03-04T19:45:20;9.30;98.70
51739;DHT22;37815;52.692;6.226;2023-03-04T19:50:20;8.70;98.50
51739;DHT22;37815;52.692;6.226;2023-03-04T19:55:21;9.50;98.80
51739;DHT22;37815;52.692;6.226;2023-03-04T20:00:22;8.70;98.60
51739;DHT22;37815;52.692;6.226;2023-03-04T20:05:22;8.70;98.60
51739;DHT22;37815;52.692;6.226;2023-03-04T20:10:23;8.60;98.60
51739;DHT22;37815;52.692;6.226;2023-03-04T20:15:24;9.30;98.70
51739;DHT22;37815;52.692;6.226;2023-03-04T20:20:26;8.70;98.60
51739;DHT22;37815;52.692;6.226;2023-03-04T20:25:28;8.60;98.60
51739;DHT22;37815;52.692;6.226;2023-03-04T20:30:31;8.60;98.60
51739;DHT22;37815;52.692;6.226;2023-03-04T20:35:32;8.60;98.60
51739;DHT22;37815;52.692;6.226;2023-03-04T20:40:33;8.60;98.60
51739;DHT22;37815;52.692;6.226;2023-03-04T20:45:35;8.60;98.60
51739;DHT22;37815;52.692;6.226;2023-03-04T20:50:36;9.60;98.90
51739;DHT22;37815;52.692;6.226;2023-03-04T20:55:37;8.50;98.60
51739;DHT22;37815;52.692;6.226;2023-03-04T21:00:37;8.60;98.60
51739;DHT22;37815;52.692;6.226;2023-03-04T21:05:38;9.00;98.80
51739;DHT22;37815;52.692;6.226;2023-03-04T21:10:39;8.60;98.70
51739;DHT22;37815;52.692;6.226;2023-03-04T21:15:46;9.30;98.80
51739;DHT22;37815;52.692;6.226;2023-03-04T21:20:47;8.50;98.60
51739;DHT22;37815;52.692;6.226;2023-03-04T21:25:48;8.50;98.60
51739;DHT22;37815;52.692;6.226;2023-03-04T21:30:49;8.50;98.70
51739;DHT22;37815;52.692;6.226;2023-03-04T21:35:49;8.50;98.70
51739;DHT22;37815;52.692;6.226;2023-03-04T21:40:50;8.50;98.70
51739;DHT22;37815;52.692;6.226;2023-03-04T21:45:56;9.30;98.90
51739;DHT22;37815;52.692;6.226;2023-03-04T21:51:02;8.50;98.70
51739;DHT22;37815;52.692;6.226;2023-03-04T21:56:04;8.50;98.70
51739;DHT22;37815;52.692;6.226;2023-03-04T22:01:09;8.50;98.70
51739;DHT22;37815;52.692;6.226;2023-03-04T22:06:11;8.40;98.70
51739;DHT22;37815;52.692;6.226;2023-03-04T22:11:12;8.40;98.70
51739;DHT22;37815;52.692;6.226;2023-03-04T22:16:14;8.40;98.70
51739;DHT22;37815;52.692;6.226;2023-03-04T22:21:17;8.40;98.70
51739;DHT22;37815;52.692;6.226;2023-03-04T22:26:23;8.40;98.70
51739;DHT22;37815;52.692;6.226;2023-03-04T22:31:34;8.40;98.70
51739;DHT22;37815;52.692;6.226;2023-03-04T22:36:37;8.30;98.70
51739;DHT22;37815;52.692;6.226;2023-03-04T22:41:38;8.40;98.70
51739;DHT22;37815;52.692;6.226;2023-03-04T22:46:39;9.30;98.90
51739;DHT22;37815;52.692;6.226;2023-03-04T22:51:42;8.80;98.80
51739;DHT22;37815;52.692;6.226;2023-03-04T22:56:44;8.30;98.70
51739;DHT22;37815;52.692;6.226;2023-03-04T23:01:44;8.30;98.70
51739;DHT22;37815;52.692;6.226;2023-03-04T23:06:45;9.60;99.00
51739;DHT22;37815;52.692;6.226;2023-03-04T23:11:46;8.30;98.70
51739;DHT22;37815;52.692;6.226;2023-03-04T23:16:46;8.90;98.90
51739;DHT22;37815;52.692;6.226;2023-03-04T23:21:48;8.30;98.70
51739;DHT22;37815;52.692;6.226;2023-03-04T23:26:49;8.30;98.70
51739;DHT22;37815;52.692;6.226;2023-03-04T23:31:51;8.30;98.70
51739;DHT22;37815;52.692;6.226;2023-03-04T23:36:52;8.30;98.70
51739;DHT22;37815;52.692;6.226;2023-03-04T23:41:53;8.20;98.70
51739;DHT22;37815;52.692;6.226;2023-03-04T23:46:53;8.30;98.80
51739;DHT22;37815;52.692;6.226;2023-03-04T23:51:54;8.20;98.80
51739;DHT22;37815;52.692;6.226;2023-03-04T23:56:55;8.20;98.70
